Terminal Aerodrome Forecast
Issued by NWS Lake Charles, LA

Home | Current Version | Previous Version | Text Only | Print | Product List | Glossary On
Versions: 1 2 3 4 5 6 7 8 9 10 11 12 13 14 15 16 17 18 19 20
000
FTUS44 KLCH 281100
TAFBPT
TAF
KBPT 281129Z 2812/0112 06013KT P6SM OVC050
     FM010500 08011KT P6SM SCT015 OVC025
     FM010800 08010KT P6SM SCT007 OVC015=

USA.gov is the U.S. government's official web portal to all federal, state and local government web resources and services.